Time;durP1;ratioP1;P1;durP2;ratioP2;P2;SDS_P1;SDS_P2;PMS_P1;PMS_P2;Temp;Humidity;BMP_temperature;BMP_pressure;BME280_temperature;BME280_humidity;BME280_pressure;Samples;Min_cycle;Max_cycle;Signal;HPM_P1;HPM_P2
2021/08/02 00:01:47;;;;;;;3.30;3.00;;;;;;;;;;4977509;28;24405;-49
2021/08/02 00:04:14;;;;;;;3.28;3.08;;;;;;;;;;4988636;28;24516;-49
2021/08/02 00:06:46;;;;;;;3.53;3.22;;;;;;;;;;4985818;28;24779;-50
2021/08/02 00:09:13;;;;;;;3.00;2.80;;;;;;;;;;4987917;28;24537;-49
2021/08/02 00:11:39;;;;;;;3.15;2.95;;;;;;;;;;4975615;28;24413;-49
2021/08/02 00:14:06;;;;;;;3.20;3.00;;;;;;;;;;4974007;28;24784;-49
2021/08/02 00:16:32;;;;;;;2.72;2.53;;;;;;;;;;4985360;28;24499;-49
2021/08/02 00:18:57;;;;;;;2.90;2.70;;;;;;;;;;4974918;28;24776;-50
2021/08/02 00:21:22;;;;;;;2.90;2.70;;;;;;;;;;4969649;28;25079;-51
2021/08/02 00:23:47;;;;;;;3.00;2.80;;;;;;;;;;4986025;28;24424;-50
2021/08/02 00:26:12;;;;;;;3.13;2.92;;;;;;;;;;4973367;28;25062;-50
2021/08/02 00:28:38;;;;;;;3.10;2.90;;;;;;;;;;4986668;28;24412;-50
2021/08/02 00:31:03;;;;;;;3.30;3.00;;;;;;;;;;4983149;28;24413;-50
2021/08/02 00:33:28;;;;;;;3.23;2.93;;;;;;;;;;4973813;28;24429;-49
2021/08/02 00:36:03;;;;;;;3.42;3.00;;;;;;;;;;4975865;28;24783;-50
2021/08/02 00:38:34;;;;;;;3.70;3.40;;;;;;;;;;4987886;28;24405;-50
2021/08/02 00:40:59;;;;;;;3.72;3.10;;;;;;;;;;4983918;28;24425;-50
2021/08/02 00:43:43;;;;;;;3.40;3.10;;;;;;;;;;4968736;28;24405;-50
2021/08/02 00:46:09;;;;;;;3.03;2.83;;;;;;;;;;4982118;28;24476;-50
2021/08/02 00:48:46;;;;;;;3.40;3.10;;;;;;;;;;4982441;28;24445;-50
2021/08/02 00:51:11;;;;;;;3.40;3.20;;;;;;;;;;4968244;28;25127;-50
2021/08/02 00:53:38;;;;;;;3.13;2.93;;;;;;;;;;4986552;28;24468;-50
2021/08/02 00:56:04;;;;;;;2.93;2.73;;;;;;;;;;4980402;28;24413;-50
2021/08/02 00:58:30;;;;;;;3.20;3.00;;;;;;;;;;4976860;28;24962;-50
2021/08/02 01:00:56;;;;;;;3.20;3.00;;;;;;;;;;4970724;28;24497;-49
2021/08/02 01:03:21;;;;;;;3.17;2.97;;;;;;;;;;4985211;28;24560;-49
2021/08/02 01:05:48;;;;;;;3.50;3.30;;;;;;;;;;4973734;28;25247;-49
2021/08/02 01:08:15;;;;;;;3.42;3.22;;;;;;;;;;4991618;28;24491;-50
2021/08/02 01:10:45;;;;;;;3.47;3.28;;;;;;;;;;4973870;28;24405;-50
2021/08/02 01:13:12;;;;;;;3.40;3.10;;;;;;;;;;4980088;28;24424;-49
2021/08/02 01:15:37;;;;;;;3.30;3.10;;;;;;;;;;4982963;28;24445;-50
2021/08/02 01:18:03;;;;;;;3.43;3.13;;;;;;;;;;4988504;28;24417;-49
2021/08/02 01:20:29;;;;;;;2.83;2.63;;;;;;;;;;4991929;28;24450;-50
2021/08/02 01:22:55;;;;;;;3.40;3.20;;;;;;;;;;4988257;28;24437;-51
2021/08/02 01:25:33;;;;;;;3.58;3.38;;;;;;;;;;4991525;28;24420;-49
2021/08/02 01:28:13;;;;;;;3.50;3.30;;;;;;;;;;4972992;28;24556;-48
2021/08/02 01:30:39;;;;;;;4.00;3.60;;;;;;;;;;4972091;28;24600;-50
2021/08/02 01:33:04;;;;;;;3.57;3.27;;;;;;;;;;4973219;28;24586;-51
2021/08/02 01:35:29;;;;;;;3.58;3.38;;;;;;;;;;4972021;28;24456;-50
2021/08/02 01:37:55;;;;;;;3.60;3.40;;;;;;;;;;4985987;28;24405;-50
2021/08/02 01:40:20;;;;;;;3.65;3.45;;;;;;;;;;4971898;28;24393;-50
2021/08/02 01:42:45;;;;;;;3.60;3.40;;;;;;;;;;4985352;28;24436;-48
2021/08/02 01:45:11;;;;;;;3.22;3.03;;;;;;;;;;4971535;28;24947;-48
2021/08/02 01:47:39;;;;;;;3.70;3.40;;;;;;;;;;4984097;28;24417;-50
2021/08/02 01:50:04;;;;;;;3.47;3.20;;;;;;;;;;4976944;28;24440;-50
2021/08/02 01:52:45;;;;;;;3.77;3.57;;;;;;;;;;4986839;28;24452;-50
2021/08/02 01:55:18;;;;;;;4.90;4.50;;;;;;;;;;4983573;28;24433;-48
2021/08/02 01:57:47;;;;;;;3.80;3.50;;;;;;;;;;4972531;28;24452;-50
2021/08/02 02:00:13;;;;;;;3.90;3.60;;;;;;;;;;4972478;28;24416;-49
2021/08/02 02:02:39;;;;;;;3.50;3.30;;;;;;;;;;4981738;28;24503;-48
2021/08/02 02:05:10;;;;;;;3.40;3.20;;;;;;;;;;4981631;28;24461;-49
2021/08/02 02:07:42;;;;;;;3.20;3.00;;;;;;;;;;4978693;28;24401;-49
2021/08/02 02:10:07;;;;;;;4.13;3.92;;;;;;;;;;4971194;28;24390;-49
2021/08/02 02:12:33;;;;;;;3.90;3.65;;;;;;;;;;4983501;28;24899;-49
2021/08/02 02:14:58;;;;;;;4.30;4.00;;;;;;;;;;4988138;28;24428;-50
2021/08/02 02:17:25;;;;;;;3.50;3.20;;;;;;;;;;4982175;28;24441;-48
2021/08/02 02:19:50;;;;;;;3.80;3.50;;;;;;;;;;4987900;28;24421;-50
2021/08/02 02:22:16;;;;;;;3.20;3.00;;;;;;;;;;4988986;28;25012;-49
2021/08/02 02:24:42;;;;;;;3.80;3.60;;;;;;;;;;4990397;28;24424;-48
2021/08/02 02:27:08;;;;;;;3.85;3.55;;;;;;;;;;4981054;28;24428;-50
2021/08/02 02:29:34;;;;;;;3.80;3.60;;;;;;;;;;4971240;28;24422;-51
2021/08/02 02:31:59;;;;;;;3.90;3.60;;;;;;;;;;4969194;28;24484;-50
2021/08/02 02:34:25;;;;;;;3.35;3.15;;;;;;;;;;4982667;28;24425;-50
2021/08/02 02:36:50;;;;;;;4.40;4.10;;;;;;;;;;4987928;28;24421;-48
2021/08/02 02:39:16;;;;;;;3.60;3.40;;;;;;;;;;4989799;28;24416;-51
2021/08/02 02:41:42;;;;;;;3.60;3.40;;;;;;;;;;4984739;28;24461;-51
2021/08/02 02:44:07;;;;;;;3.70;3.30;;;;;;;;;;4976618;28;24452;-49
2021/08/02 02:46:33;;;;;;;3.53;3.33;;;;;;;;;;4974852;28;24451;-51
2021/08/02 02:48:59;;;;;;;3.93;3.63;;;;;;;;;;4971268;28;24436;-51
2021/08/02 02:51:28;;;;;;;5.00;4.60;;;;;;;;;;4975340;28;24469;-50
2021/08/02 02:53:54;;;;;;;4.00;3.70;;;;;;;;;;4978704;28;24536;-50
2021/08/02 02:56:19;;;;;;;4.30;4.00;;;;;;;;;;4985142;28;25063;-49
2021/08/02 02:58:45;;;;;;;4.20;4.00;;;;;;;;;;4981537;28;24772;-49
2021/08/02 03:01:12;;;;;;;3.80;3.50;;;;;;;;;;4972576;28;24419;-51
2021/08/02 03:03:40;;;;;;;3.70;3.50;;;;;;;;;;4978431;28;24460;-51
2021/08/02 03:06:05;;;;;;;3.20;3.00;;;;;;;;;;4988009;28;24512;-50
2021/08/02 03:08:32;;;;;;;3.63;3.33;;;;;;;;;;4988574;28;24504;-50
2021/08/02 03:10:57;;;;;;;3.60;3.40;;;;;;;;;;4978454;28;24973;-50
2021/08/02 03:13:22;;;;;;;4.37;3.97;;;;;;;;;;4989157;28;24408;-52
2021/08/02 03:15:47;;;;;;;4.30;3.75;;;;;;;;;;4970410;28;24441;-50
2021/08/02 03:18:13;;;;;;;3.60;3.40;;;;;;;;;;4973725;28;24444;-50
2021/08/02 03:20:39;;;;;;;3.93;3.70;;;;;;;;;;4971002;28;24505;-50
2021/08/02 03:23:07;;;;;;;3.88;3.58;;;;;;;;;;4985110;28;24470;-50
2021/08/02 03:25:36;;;;;;;4.30;4.00;;;;;;;;;;4984547;28;24994;-51
2021/08/02 03:28:10;;;;;;;4.00;3.70;;;;;;;;;;4969122;28;24975;-50
2021/08/02 03:30:37;;;;;;;5.55;4.20;;;;;;;;;;4969879;28;24400;-49
2021/08/02 03:33:03;;;;;;;3.60;3.30;;;;;;;;;;4974941;28;24418;-50
2021/08/02 03:35:29;;;;;;;3.30;3.10;;;;;;;;;;4987112;28;24425;-50
2021/08/02 03:37:55;;;;;;;3.67;3.38;;;;;;;;;;4973993;28;24505;-50
2021/08/02 03:40:21;;;;;;;3.50;3.30;;;;;;;;;;4969808;28;24525;-50
2021/08/02 03:42:46;;;;;;;3.40;3.20;;;;;;;;;;4975769;28;24772;-50
2021/08/02 03:45:13;;;;;;;3.60;3.40;;;;;;;;;;4989024;28;24417;-51
2021/08/02 03:47:38;;;;;;;3.40;3.20;;;;;;;;;;4984855;28;24420;-49
2021/08/02 03:50:04;;;;;;;3.83;3.50;;;;;;;;;;4987121;28;24515;-50
2021/08/02 03:52:29;;;;;;;3.90;3.60;;;;;;;;;;4988433;28;24535;-50
2021/08/02 03:54:54;;;;;;;3.60;3.30;;;;;;;;;;4987108;28;24468;-50
2021/08/02 03:57:21;;;;;;;3.30;3.10;;;;;;;;;;4971807;28;24786;-50
2021/08/02 03:59:48;;;;;;;4.10;3.80;;;;;;;;;;4977471;28;24412;-51
2021/08/02 04:02:13;;;;;;;3.50;3.30;;;;;;;;;;4978554;28;24424;-52
2021/08/02 04:04:38;;;;;;;3.50;3.30;;;;;;;;;;4988371;28;24819;-51
2021/08/02 04:07:03;;;;;;;3.60;3.30;;;;;;;;;;4988696;28;24424;-52
2021/08/02 04:09:29;;;;;;;3.80;3.60;;;;;;;;;;4974254;28;24509;-50
2021/08/02 04:11:54;;;;;;;3.30;3.10;;;;;;;;;;4969096;28;24472;-50
2021/08/02 04:14:19;;;;;;;3.03;2.83;;;;;;;;;;4980874;28;24464;-51
2021/08/02 04:16:44;;;;;;;3.20;3.00;;;;;;;;;;4969213;28;24397;-51
2021/08/02 04:19:09;;;;;;;4.00;3.70;;;;;;;;;;4980460;28;24907;-51
2021/08/02 04:21:35;;;;;;;4.10;3.80;;;;;;;;;;4977359;28;24448;-49
2021/08/02 04:24:00;;;;;;;3.40;3.20;;;;;;;;;;4988158;28;24393;-51
2021/08/02 04:26:25;;;;;;;4.07;3.77;;;;;;;;;;4970874;28;24420;-50
2021/08/02 04:28:56;;;;;;;3.80;3.50;;;;;;;;;;4974639;28;24418;-50
2021/08/02 04:31:23;;;;;;;4.00;3.70;;;;;;;;;;4969556;28;24497;-50
2021/08/02 04:33:48;;;;;;;4.15;3.85;;;;;;;;;;4975425;28;24516;-50
2021/08/02 04:36:13;;;;;;;4.60;4.20;;;;;;;;;;4987506;28;24995;-50
2021/08/02 04:38:38;;;;;;;4.63;4.33;;;;;;;;;;4983377;28;24405;-49
2021/08/02 04:41:04;;;;;;;4.20;3.90;;;;;;;;;;4985930;28;24436;-50
2021/08/02 04:43:29;;;;;;;4.30;4.00;;;;;;;;;;4975146;28;24409;-50
2021/08/02 04:45:54;;;;;;;4.33;4.03;;;;;;;;;;4972423;28;24502;-50
2021/08/02 04:48:19;;;;;;;5.10;4.70;;;;;;;;;;4980772;28;24431;-51
2021/08/02 04:50:46;;;;;;;4.60;4.20;;;;;;;;;;4974839;28;24476;-49
2021/08/02 04:53:11;;;;;;;5.00;4.60;;;;;;;;;;4982932;28;24469;-50
2021/08/02 04:55:36;;;;;;;4.70;4.30;;;;;;;;;;4971064;28;24464;-50
2021/08/02 04:58:02;;;;;;;4.40;4.10;;;;;;;;;;4971576;28;24416;-49
2021/08/02 05:00:27;;;;;;;4.90;4.50;;;;;;;;;;4979952;28;24436;-50
2021/08/02 05:02:52;;;;;;;4.43;4.13;;;;;;;;;;4987884;28;24405;-51
2021/08/02 05:05:17;;;;;;;4.38;4.07;;;;;;;;;;4979879;28;24461;-51
2021/08/02 05:07:42;;;;;;;4.77;4.47;;;;;;;;;;4972556;28;25029;-50
2021/08/02 05:10:08;;;;;;;4.70;4.30;;;;;;;;;;4977687;28;24476;-51
2021/08/02 05:12:33;;;;;;;5.20;4.80;;;;;;;;;;4977625;28;24428;-51
2021/08/02 05:15:05;;;;;;;4.97;4.60;;;;;;;;;;4978288;28;24532;-51
2021/08/02 05:17:30;;;;;;;5.20;4.80;;;;;;;;;;4982244;28;24407;-51
2021/08/02 05:19:55;;;;;;;5.70;5.30;;;;;;;;;;4975576;28;24513;-50
2021/08/02 05:22:20;;;;;;;4.72;4.32;;;;;;;;;;4987467;28;24576;-50
2021/08/02 05:24:45;;;;;;;4.47;4.18;;;;;;;;;;4979933;28;24409;-51
2021/08/02 05:27:10;;;;;;;5.55;4.95;;;;;;;;;;4977957;28;24453;-50
2021/08/02 05:29:35;;;;;;;5.00;4.60;;;;;;;;;;4977235;28;24476;-51
2021/08/02 05:32:02;;;;;;;4.70;4.30;;;;;;;;;;4983575;28;24415;-50
2021/08/02 05:34:27;;;;;;;5.20;4.83;;;;;;;;;;4980368;28;25006;-51
2021/08/02 05:36:53;;;;;;;5.30;4.90;;;;;;;;;;4975321;28;24413;-51
2021/08/02 05:39:18;;;;;;;5.00;4.70;;;;;;;;;;4981113;28;25026;-50
2021/08/02 05:41:44;;;;;;;5.85;5.25;;;;;;;;;;4969679;28;24510;-50
2021/08/02 05:44:09;;;;;;;6.30;5.80;;;;;;;;;;4984661;28;24450;-51
2021/08/02 05:46:34;;;;;;;6.68;6.18;;;;;;;;;;4984639;28;24412;-50
2021/08/02 05:49:00;;;;;;;6.50;6.00;;;;;;;;;;4983279;28;25077;-51
2021/08/02 05:51:25;;;;;;;8.05;7.35;;;;;;;;;;4965164;28;24440;-52
2021/08/02 05:53:50;;;;;;;7.50;7.00;;;;;;;;;;4986744;28;24437;-52
2021/08/02 05:56:16;;;;;;;8.10;7.40;;;;;;;;;;4976847;28;24461;-52
2021/08/02 05:58:42;;;;;;;7.68;7.10;;;;;;;;;;4983631;28;24431;-52
2021/08/02 06:01:07;;;;;;;8.50;7.70;;;;;;;;;;4987157;28;25077;-52
2021/08/02 06:03:32;;;;;;;7.80;7.30;;;;;;;;;;4985065;28;24495;-52
2021/08/02 06:05:59;;;;;;;7.70;7.10;;;;;;;;;;4980687;28;24791;-52
2021/08/02 06:08:24;;;;;;;8.47;7.87;;;;;;;;;;4975009;28;24483;-52
2021/08/02 06:10:49;;;;;;;8.85;8.15;;;;;;;;;;4976352;28;24815;-51
2021/08/02 06:13:14;;;;;;;7.93;7.33;;;;;;;;;;4986037;28;24416;-52
2021/08/02 06:15:39;;;;;;;7.80;7.30;;;;;;;;;;4973434;28;24421;-52
2021/08/02 06:18:04;;;;;;;7.68;7.18;;;;;;;;;;4968804;28;24401;-52
2021/08/02 06:20:30;;;;;;;8.02;7.43;;;;;;;;;;4981400;28;24525;-52
2021/08/02 06:22:55;;;;;;;8.57;7.88;;;;;;;;;;4974176;28;24534;-52
2021/08/02 06:25:20;;;;;;;7.20;6.70;;;;;;;;;;4987035;28;24480;-53
2021/08/02 06:27:45;;;;;;;6.90;6.40;;;;;;;;;;4981698;28;24540;-52
2021/08/02 06:30:10;;;;;;;7.33;6.83;;;;;;;;;;4987574;28;24482;-52
2021/08/02 06:32:35;;;;;;;7.20;6.70;;;;;;;;;;4987562;28;24443;-52
2021/08/02 06:35:00;;;;;;;7.22;6.63;;;;;;;;;;4986854;28;24822;-53
2021/08/02 06:37:27;;;;;;;9.50;8.80;;;;;;;;;;4976573;28;24480;-52
2021/08/02 06:39:52;;;;;;;8.75;8.15;;;;;;;;;;4984806;28;24409;-53
2021/08/02 06:42:17;;;;;;;8.70;7.90;;;;;;;;;;4978007;28;24441;-54
2021/08/02 06:44:43;;;;;;;8.17;7.57;;;;;;;;;;4976079;28;24433;-57
2021/08/02 06:47:08;;;;;;;8.80;8.20;;;;;;;;;;4986508;28;24420;-52
2021/08/02 06:49:34;;;;;;;11.80;10.90;;;;;;;;;;4985397;28;25013;-51
2021/08/02 06:51:59;;;;;;;11.60;10.80;;;;;;;;;;4988017;28;25234;-52
2021/08/02 06:54:24;;;;;;;13.52;12.52;;;;;;;;;;4987421;28;24432;-51
2021/08/02 06:56:49;;;;;;;12.40;11.50;;;;;;;;;;4988773;28;24428;-51
2021/08/02 06:59:14;;;;;;;13.10;12.10;;;;;;;;;;4987040;28;24890;-52
2021/08/02 07:01:39;;;;;;;13.13;12.13;;;;;;;;;;4986221;28;24413;-52
2021/08/02 07:04:05;;;;;;;12.40;11.50;;;;;;;;;;4986918;28;24417;-52
2021/08/02 07:06:30;;;;;;;12.13;11.20;;;;;;;;;;4988353;28;24795;-53
2021/08/02 07:08:58;;;;;;;11.63;10.83;;;;;;;;;;4988396;28;24772;-52
2021/08/02 07:11:23;;;;;;;12.30;11.50;;;;;;;;;;4988267;28;24491;-53
2021/08/02 07:13:48;;;;;;;12.83;11.83;;;;;;;;;;4988846;28;24544;-52
2021/08/02 07:16:13;;;;;;;12.27;11.38;;;;;;;;;;4988803;28;24404;-54
2021/08/02 07:18:38;;;;;;;11.45;10.55;;;;;;;;;;4988902;28;24836;-54
2021/08/02 07:21:03;;;;;;;12.67;11.77;;;;;;;;;;4989175;28;24443;-54
2021/08/02 07:23:29;;;;;;;13.83;12.83;;;;;;;;;;4989034;28;24989;-53
2021/08/02 07:25:54;;;;;;;12.07;11.27;;;;;;;;;;4989096;28;24791;-53
2021/08/02 07:28:19;;;;;;;12.85;11.95;;;;;;;;;;4989003;28;24794;-52
2021/08/02 07:30:44;;;;;;;13.67;12.67;;;;;;;;;;4989098;28;24408;-52
2021/08/02 07:33:09;;;;;;;14.57;13.47;;;;;;;;;;4987947;28;24397;-56
2021/08/02 07:35:34;;;;;;;14.43;13.48;;;;;;;;;;4988565;28;24440;-52
2021/08/02 07:38:00;;;;;;;15.10;14.00;;;;;;;;;;4988553;28;24442;-51
2021/08/02 07:40:25;;;;;;;14.73;13.63;;;;;;;;;;4988474;28;24966;-51
2021/08/02 07:42:50;;;;;;;16.13;15.03;;;;;;;;;;4987991;28;24432;-52
2021/08/02 07:45:15;;;;;;;14.43;13.43;;;;;;;;;;4988314;28;24389;-52
2021/08/02 07:47:40;;;;;;;14.93;13.83;;;;;;;;;;4988193;28;24408;-52
2021/08/02 07:50:07;;;;;;;13.70;12.80;;;;;;;;;;4988317;28;24389;-52
2021/08/02 07:52:32;;;;;;;13.80;12.88;;;;;;;;;;4988417;28;24811;-52
2021/08/02 07:54:58;;;;;;;14.48;13.48;;;;;;;;;;4988565;28;24413;-52
2021/08/02 07:57:23;;;;;;;13.55;12.65;;;;;;;;;;4970371;28;24413;-52
2021/08/02 07:59:48;;;;;;;11.87;11.07;;;;;;;;;;4988163;28;24752;-51
2021/08/02 08:02:13;;;;;;;13.70;12.73;;;;;;;;;;4987833;28;24443;-53
2021/08/02 08:04:38;;;;;;;13.17;12.27;;;;;;;;;;4988130;28;24536;-52
2021/08/02 08:07:03;;;;;;;15.17;14.03;;;;;;;;;;4988231;28;24930;-53
2021/08/02 08:09:29;;;;;;;14.38;13.38;;;;;;;;;;4987709;28;24512;-52
2021/08/02 08:11:54;;;;;;;9.10;8.50;;;;;;;;;;4987879;28;24496;-52
2021/08/02 08:14:19;;;;;;;5.10;4.70;;;;;;;;;;4987212;28;24464;-52
2021/08/02 08:16:44;;;;;;;4.03;3.72;;;;;;;;;;4987930;28;24400;-52
2021/08/02 08:19:09;;;;;;;3.30;3.10;;;;;;;;;;4987278;28;24811;-52
2021/08/02 08:21:36;;;;;;;3.13;2.92;;;;;;;;;;4987638;28;24428;-53
2021/08/02 08:24:04;;;;;;;2.60;2.50;;;;;;;;;;4988419;28;24408;-52
2021/08/02 08:26:29;;;;;;;3.00;2.80;;;;;;;;;;4987340;28;24491;-53
2021/08/02 08:28:54;;;;;;;2.70;2.50;;;;;;;;;;4987245;28;24507;-52
2021/08/02 08:31:19;;;;;;;2.80;2.60;;;;;;;;;;4988151;28;24435;-52
2021/08/02 08:33:46;;;;;;;2.77;2.57;;;;;;;;;;4987369;28;24417;-51
2021/08/02 08:36:14;;;;;;;3.10;2.90;;;;;;;;;;4987558;28;24447;-52
2021/08/02 08:38:40;;;;;;;3.03;2.83;;;;;;;;;;4987019;28;24851;-53
2021/08/02 08:41:05;;;;;;;3.33;3.10;;;;;;;;;;4987690;28;24742;-52
2021/08/02 08:43:30;;;;;;;3.57;3.07;;;;;;;;;;4987199;28;24424;-53
2021/08/02 08:45:55;;;;;;;2.80;2.60;;;;;;;;;;4987217;28;25228;-52
2021/08/02 08:48:20;;;;;;;3.10;2.90;;;;;;;;;;4987161;28;24404;-53
2021/08/02 08:50:46;;;;;;;3.00;2.80;;;;;;;;;;4987403;28;24443;-52
2021/08/02 08:53:11;;;;;;;2.80;2.60;;;;;;;;;;4987302;28;24540;-54
2021/08/02 08:55:40;;;;;;;3.00;2.80;;;;;;;;;;4987112;28;24479;-52
2021/08/02 08:58:05;;;;;;;2.58;2.47;;;;;;;;;;4986840;28;24504;-54
2021/08/02 09:00:30;;;;;;;2.70;2.50;;;;;;;;;;4987549;28;24952;-53
2021/08/02 09:02:56;;;;;;;2.40;2.30;;;;;;;;;;4987499;28;24480;-53
2021/08/02 09:05:31;;;;;;;2.50;2.30;;;;;;;;;;4987731;28;24400;-53
2021/08/02 09:07:56;;;;;;;2.65;2.30;;;;;;;;;;4987417;28;24404;-53
2021/08/02 09:10:23;;;;;;;2.40;2.20;;;;;;;;;;4987398;28;24823;-53
2021/08/02 09:12:52;;;;;;;2.70;2.50;;;;;;;;;;4987379;28;24468;-53
2021/08/02 09:15:17;;;;;;;2.70;2.50;;;;;;;;;;4987616;28;24523;-53
2021/08/02 09:17:43;;;;;;;2.80;2.60;;;;;;;;;;4987281;28;24513;-53
2021/08/02 09:20:26;;;;;;;2.47;2.27;;;;;;;;;;4986873;28;24459;-53
2021/08/02 09:22:52;;;;;;;2.63;2.42;;;;;;;;;;4987494;28;24477;-53
2021/08/02 09:25:21;;;;;;;2.55;2.35;;;;;;;;;;4987207;28;25397;-53
2021/08/02 09:27:47;;;;;;;2.60;2.40;;;;;;;;;;4989837;28;24397;-53
2021/08/02 09:30:12;;;;;;;2.30;2.20;;;;;;;;;;4991005;28;24807;-53
2021/08/02 09:32:44;;;;;;;2.27;2.17;;;;;;;;;;4990175;28;24974;-53
2021/08/02 09:35:09;;;;;;;2.60;2.40;;;;;;;;;;4989928;28;24551;-53
2021/08/02 09:37:34;;;;;;;2.63;2.40;;;;;;;;;;4990716;28;24456;-53
2021/08/02 09:40:06;;;;;;;2.87;2.67;;;;;;;;;;4990546;28;24394;-53
2021/08/02 09:42:31;;;;;;;3.30;2.90;;;;;;;;;;4989910;28;24897;-53
2021/08/02 09:45:00;;;;;;;2.90;2.70;;;;;;;;;;4990986;28;24463;-53
2021/08/02 09:47:28;;;;;;;3.00;2.80;;;;;;;;;;4990933;28;24400;-53
2021/08/02 09:49:54;;;;;;;3.30;3.10;;;;;;;;;;4990230;28;24403;-53
2021/08/02 09:52:20;;;;;;;3.10;2.80;;;;;;;;;;4990569;28;24523;-53
2021/08/02 09:54:45;;;;;;;3.17;2.92;;;;;;;;;;4990274;28;24974;-54
2021/08/02 09:57:11;;;;;;;2.80;2.60;;;;;;;;;;4990407;28;24472;-53
2021/08/02 09:59:41;;;;;;;2.63;2.53;;;;;;;;;;4989983;28;24771;-53
2021/08/02 10:02:06;;;;;;;2.80;2.60;;;;;;;;;;4990587;28;24408;-53
2021/08/02 10:04:32;;;;;;;2.92;2.72;;;;;;;;;;4990388;28;24475;-52
2021/08/02 10:06:57;;;;;;;3.00;2.80;;;;;;;;;;4989930;28;24956;-52
2021/08/02 10:09:22;;;;;;;2.50;2.30;;;;;;;;;;4989951;28;24393;-52
2021/08/02 10:11:47;;;;;;;3.30;3.10;;;;;;;;;;4989711;28;24516;-52
2021/08/02 10:14:14;;;;;;;3.10;2.90;;;;;;;;;;4990304;28;24425;-55
2021/08/02 10:16:42;;;;;;;3.17;2.90;;;;;;;;;;4990227;28;24975;-52
2021/08/02 10:19:08;;;;;;;4.60;4.30;;;;;;;;;;4989496;28;24417;-53
2021/08/02 10:21:56;;;;;;;4.00;3.70;;;;;;;;;;4989863;28;24880;-53
2021/08/02 10:24:21;;;;;;;4.70;4.40;;;;;;;;;;4989874;28;24413;-52
2021/08/02 10:26:56;;;;;;;4.80;4.50;;;;;;;;;;4989404;28;24403;-53
2021/08/02 10:29:21;;;;;;;4.70;4.30;;;;;;;;;;4989451;28;24495;-52
2021/08/02 10:31:55;;;;;;;4.50;4.20;;;;;;;;;;4989563;28;24716;-53
2021/08/02 10:34:22;;;;;;;5.57;5.18;;;;;;;;;;4989785;28;24460;-52
2021/08/02 10:36:57;;;;;;;5.63;5.22;;;;;;;;;;4989244;28;24408;-52
2021/08/02 10:39:23;;;;;;;5.40;5.10;;;;;;;;;;4989676;28;24459;-53
2021/08/02 10:41:48;;;;;;;4.50;4.30;;;;;;;;;;4989597;28;24943;-53
2021/08/02 10:44:14;;;;;;;5.00;4.60;;;;;;;;;;4989361;28;24404;-53
2021/08/02 10:46:40;;;;;;;4.60;4.20;;;;;;;;;;4989046;28;24516;-53
2021/08/02 10:49:12;;;;;;;4.80;4.50;;;;;;;;;;4989192;28;25010;-53
2021/08/02 10:51:46;;;;;;;3.90;3.70;;;;;;;;;;4989047;28;24392;-53
2021/08/02 10:54:11;;;;;;;3.95;3.65;;;;;;;;;;4989509;28;24447;-53
2021/08/02 10:56:36;;;;;;;4.33;4.03;;;;;;;;;;4989382;28;24949;-53
2021/08/02 10:59:02;;;;;;;4.10;3.80;;;;;;;;;;4989145;28;24423;-53
2021/08/02 11:01:28;;;;;;;4.10;3.80;;;;;;;;;;4989245;28;24396;-53
2021/08/02 11:03:54;;;;;;;3.97;3.77;;;;;;;;;;4988971;28;24467;-52
2021/08/02 11:06:19;;;;;;;3.80;3.60;;;;;;;;;;4989478;28;24397;-54
2021/08/02 11:08:52;;;;;;;3.72;3.53;;;;;;;;;;4988698;28;24405;-53
2021/08/02 11:11:19;;;;;;;4.30;4.10;;;;;;;;;;4988580;28;24997;-53
2021/08/02 11:13:44;;;;;;;4.53;4.13;;;;;;;;;;4988617;28;24896;-53
2021/08/02 11:16:09;;;;;;;4.20;4.00;;;;;;;;;;4989214;28;24999;-54
2021/08/02 11:18:34;;;;;;;4.30;4.00;;;;;;;;;;4988298;28;24980;-53
2021/08/02 11:21:00;;;;;;;4.50;4.20;;;;;;;;;;4989274;28;24432;-53
2021/08/02 11:23:32;;;;;;;4.30;4.10;;;;;;;;;;4988894;28;24432;-53
2021/08/02 11:26:04;;;;;;;4.30;4.10;;;;;;;;;;4988414;28;24389;-53
2021/08/02 11:28:55;;;;;;;3.60;3.40;;;;;;;;;;4988065;28;24388;-53
2021/08/02 11:31:23;;;;;;;3.38;3.17;;;;;;;;;;4984183;28;24421;-54
2021/08/02 11:33:49;;;;;;;3.33;3.13;;;;;;;;;;4988047;28;24419;-53
2021/08/02 11:36:18;;;;;;;3.30;3.10;;;;;;;;;;4989059;28;24404;-54
2021/08/02 11:38:44;;;;;;;3.10;2.90;;;;;;;;;;4987988;28;24390;-53
2021/08/02 11:41:09;;;;;;;3.33;3.13;;;;;;;;;;4988189;28;24400;-53
2021/08/02 11:43:44;;;;;;;3.00;2.85;;;;;;;;;;4988787;28;24389;-53
2021/08/02 11:46:10;;;;;;;4.00;3.80;;;;;;;;;;4988846;28;24388;-54
2021/08/02 11:48:35;;;;;;;4.50;4.20;;;;;;;;;;4988157;28;24390;-53
2021/08/02 11:51:01;;;;;;;4.37;4.07;;;;;;;;;;4987830;28;24919;-53
2021/08/02 11:53:35;;;;;;;4.40;4.10;;;;;;;;;;4988553;28;24472;-53
2021/08/02 11:56:01;;;;;;;4.10;3.90;;;;;;;;;;4988084;28;24440;-53
2021/08/02 11:58:36;;;;;;;4.15;3.95;;;;;;;;;;4987912;28;24508;-54
2021/08/02 12:01:01;;;;;;;4.60;4.30;;;;;;;;;;4987747;28;24452;-53
2021/08/02 12:03:26;;;;;;;4.45;4.25;;;;;;;;;;4987799;28;24989;-53
2021/08/02 12:06:00;;;;;;;3.93;3.73;;;;;;;;;;4987708;28;24400;-53
2021/08/02 12:08:25;;;;;;;3.55;3.28;;;;;;;;;;4986132;28;24404;-53
2021/08/02 12:10:58;;;;;;;3.23;2.93;;;;;;;;;;4987935;28;24424;-53
2021/08/02 12:13:24;;;;;;;2.70;2.50;;;;;;;;;;4988424;28;24896;-52
2021/08/02 12:15:59;;;;;;;2.50;2.30;;;;;;;;;;4987348;28;24516;-53
2021/08/02 12:18:26;;;;;;;2.20;2.10;;;;;;;;;;4987906;28;24397;-52
2021/08/02 12:20:51;;;;;;;1.90;1.80;;;;;;;;;;4987839;28;24389;-53
2021/08/02 12:23:26;;;;;;;2.13;2.03;;;;;;;;;;4988272;28;24397;-52
2021/08/02 12:25:51;;;;;;;1.95;1.85;;;;;;;;;;4987514;28;24397;-52
2021/08/02 12:28:16;;;;;;;2.40;1.80;;;;;;;;;;4987931;28;24401;-52
2021/08/02 12:30:42;;;;;;;2.10;2.00;;;;;;;;;;4987417;28;24440;-53
2021/08/02 12:33:09;;;;;;;2.50;2.30;;;;;;;;;;4987179;28;24428;-53
2021/08/02 12:35:34;;;;;;;1.85;1.75;;;;;;;;;;4987526;28;24440;-53
2021/08/02 12:38:00;;;;;;;1.67;1.58;;;;;;;;;;4988104;28;24385;-53
2021/08/02 12:40:25;;;;;;;2.03;1.83;;;;;;;;;;4987275;28;24404;-52
2021/08/02 12:42:51;;;;;;;2.10;1.90;;;;;;;;;;4986801;28;25215;-53
2021/08/02 12:45:17;;;;;;;2.00;1.90;;;;;;;;;;4987576;28;24475;-52
2021/08/02 12:47:42;;;;;;;2.40;2.20;;;;;;;;;;4987509;28;24472;-54
2021/08/02 12:50:09;;;;;;;1.80;1.70;;;;;;;;;;4987374;28;24951;-53
2021/08/02 12:52:34;;;;;;;1.95;1.85;;;;;;;;;;4987135;28;24495;-52
2021/08/02 12:55:00;;;;;;;1.70;1.60;;;;;;;;;;4987260;28;25025;-53
2021/08/02 12:57:26;;;;;;;1.70;1.60;;;;;;;;;;4986614;28;24500;-53
2021/08/02 12:59:53;;;;;;;1.90;1.80;;;;;;;;;;4986461;28;24396;-53
2021/08/02 13:02:18;;;;;;;1.98;1.77;;;;;;;;;;4990219;28;24409;-53
2021/08/02 13:04:43;;;;;;;1.50;1.40;;;;;;;;;;4991420;28;24997;-53
2021/08/02 13:07:08;;;;;;;2.00;1.90;;;;;;;;;;4991533;28;24472;-52
2021/08/02 13:09:33;;;;;;;2.50;2.40;;;;;;;;;;4991285;28;24424;-53
2021/08/02 13:11:58;;;;;;;2.40;2.30;;;;;;;;;;4991218;28;24399;-54
2021/08/02 13:14:24;;;;;;;2.30;2.20;;;;;;;;;;4991233;28;24532;-54
2021/08/02 13:16:49;;;;;;;1.60;1.50;;;;;;;;;;4990717;28;24446;-53
2021/08/02 13:19:14;;;;;;;1.60;1.50;;;;;;;;;;4991265;28;24436;-53
2021/08/02 13:21:39;;;;;;;1.93;1.80;;;;;;;;;;4991241;28;24484;-53
2021/08/02 13:26:58;;;;;;;1.85;1.50;;;;;;;;;;4990674;28;24399;-52
2021/08/02 13:29:24;;;;;;;1.70;1.60;;;;;;;;;;4990749;28;24768;-53
2021/08/02 13:31:50;;;;;;;1.60;1.50;;;;;;;;;;4973356;28;24404;-53
2021/08/02 13:34:15;;;;;;;1.60;1.50;;;;;;;;;;4990522;28;24413;-53
2021/08/02 13:36:40;;;;;;;1.90;1.50;;;;;;;;;;4990472;28;24416;-53
2021/08/02 13:39:06;;;;;;;1.47;1.40;;;;;;;;;;4990791;28;24416;-53
2021/08/02 13:41:31;;;;;;;1.80;1.70;;;;;;;;;;4990260;28;24943;-53
2021/08/02 13:43:57;;;;;;;1.60;1.50;;;;;;;;;;4990473;28;25000;-52
2021/08/02 13:46:23;;;;;;;1.90;1.70;;;;;;;;;;4990819;28;24393;-53
2021/08/02 13:48:48;;;;;;;2.15;1.63;;;;;;;;;;4990887;28;24938;-53
2021/08/02 13:51:13;;;;;;;1.80;1.70;;;;;;;;;;4990781;28;24405;-53
2021/08/02 13:53:38;;;;;;;1.80;1.70;;;;;;;;;;4989894;28;24835;-53
2021/08/02 13:56:03;;;;;;;1.80;1.70;;;;;;;;;;4990147;28;24808;-54
2021/08/02 13:58:29;;;;;;;2.40;2.20;;;;;;;;;;4990546;28;24432;-54
2021/08/02 14:00:54;;;;;;;1.60;1.50;;;;;;;;;;4990552;28;24440;-54
2021/08/02 14:03:19;;;;;;;1.80;1.70;;;;;;;;;;4990836;28;24416;-54
2021/08/02 14:05:44;;;;;;;1.80;1.70;;;;;;;;;;4990573;28;24451;-53
2021/08/02 14:08:09;;;;;;;2.00;1.90;;;;;;;;;;4990056;28;24756;-53
2021/08/02 14:10:35;;;;;;;1.90;1.80;;;;;;;;;;4990103;28;24463;-53
2021/08/02 14:13:02;;;;;;;1.80;1.70;;;;;;;;;;4989341;28;24768;-52
2021/08/02 14:15:28;;;;;;;1.60;1.50;;;;;;;;;;4990157;28;24483;-53
2021/08/02 14:17:54;;;;;;;1.80;1.70;;;;;;;;;;4990046;28;24966;-53
2021/08/02 14:20:19;;;;;;;2.10;1.90;;;;;;;;;;4989490;28;24405;-53
2021/08/02 14:22:45;;;;;;;2.72;1.80;;;;;;;;;;4990001;28;24400;-53
2021/08/02 14:25:10;;;;;;;2.00;1.90;;;;;;;;;;4989789;28;24401;-54
2021/08/02 14:27:35;;;;;;;2.00;1.90;;;;;;;;;;4989960;28;24500;-53
2021/08/02 14:30:04;;;;;;;2.50;2.30;;;;;;;;;;4988900;28;24524;-53
2021/08/02 14:32:29;;;;;;;2.20;2.10;;;;;;;;;;4989884;28;24400;-53
2021/08/02 14:34:54;;;;;;;2.40;2.20;;;;;;;;;;4989653;28;24437;-53
2021/08/02 14:37:20;;;;;;;2.60;2.50;;;;;;;;;;4989999;28;24928;-53
2021/08/02 14:39:45;;;;;;;2.20;2.00;;;;;;;;;;4989385;28;24401;-53